Time;durP1;ratioP1;P1;durP2;ratioP2;P2;SDS_P1;SDS_P2;PMS_P1;PMS_P2;Temp;Humidity;BMP_temperature;BMP_pressure;BME280_temperature;BME280_humidity;BME280_pressure;Samples;Min_cycle;Max_cycle;Signal;HPM_P1;HPM_P2
2021/06/08 00:02:21;;;;;;;6.60;5.18;;;;;;;13.34;77.89;93534.66;5092857;28;20024;-38
2021/06/08 00:04:46;;;;;;;7.40;5.38;;;;;;;13.28;77.95;93536.94;5091509;28;20028;-38
2021/06/08 00:07:12;;;;;;;9.82;6.45;;;;;;;13.15;78.69;93537.19;5092563;28;20051;-42
2021/06/08 00:09:37;;;;;;;10.90;6.75;;;;;;;13.05;79.63;93539.13;5093091;28;20028;-41
2021/06/08 00:12:03;;;;;;;6.03;4.05;;;;;;;13.08;79.88;93540.03;5093007;28;20477;-44
2021/06/08 00:14:28;;;;;;;6.93;4.10;;;;;;;13.05;80.08;93535.59;5092983;28;20226;-41
2021/06/08 00:16:54;;;;;;;5.97;4.47;;;;;;;13.10;80.42;93537.44;5092900;28;20474;-39
2021/06/08 00:19:19;;;;;;;4.82;3.90;;;;;;;13.13;80.37;93539.06;5092893;28;20393;-39
2021/06/08 00:21:45;;;;;;;5.13;3.33;;;;;;;13.11;80.50;93536.09;5092558;28;20024;-39
2021/06/08 00:24:10;;;;;;;4.43;3.15;;;;;;;13.11;80.36;93530.56;5095775;28;20023;-39
2021/06/08 00:26:36;;;;;;;4.65;3.15;;;;;;;13.16;80.68;93530.38;5095071;28;20411;-39
2021/06/08 00:29:02;;;;;;;3.53;3.03;;;;;;;13.16;81.08;93524.06;5112675;28;20106;-39
2021/06/08 00:31:28;;;;;;;2.97;2.55;;;;;;;13.26;80.21;93528.44;5112741;28;20564;-39
2021/06/08 00:33:53;;;;;;;5.10;2.85;;;;;;;13.35;80.52;93519.50;5113037;28;20108;-39
2021/06/08 00:36:19;;;;;;;4.15;2.92;;;;;;;13.33;80.58;93513.78;5101597;28;20032;-40
2021/06/08 00:38:45;;;;;;;6.97;3.55;;;;;;;13.25;81.13;93515.91;5092286;28;20574;-42
2021/06/08 00:41:11;;;;;;;6.22;3.42;;;;;;;13.24;81.29;93519.94;5092416;28;20032;-39
2021/06/08 00:43:37;;;;;;;3.97;3.10;;;;;;;13.31;81.38;93512.88;5092480;28;20039;-39
2021/06/08 00:46:03;;;;;;;4.80;3.83;;;;;;;13.32;81.70;93506.75;5092080;28;20036;-42
2021/06/08 00:48:28;;;;;;;4.30;3.10;;;;;;;13.43;81.78;93503.56;5092192;28;20031;-43
2021/06/08 00:50:54;;;;;;;5.15;3.38;;;;;;;13.49;81.78;93515.16;5091750;28;20028;-42
2021/06/08 00:53:19;;;;;;;3.83;3.38;;;;;;;13.53;81.71;93514.75;5092239;28;20038;-44
2021/06/08 00:55:45;;;;;;;5.47;3.25;;;;;;;13.59;81.06;93507.69;5092280;28;20024;-40
2021/06/08 00:58:10;;;;;;;5.35;3.70;;;;;;;13.66;80.44;93503.38;5091808;28;20421;-37
2021/06/08 01:00:36;;;;;;;7.82;3.65;;;;;;;13.64;80.30;93497.66;5091815;28;20047;-43
2021/06/08 01:03:03;;;;;;;13.05;4.32;;;;;;;13.62;80.75;93501.00;5092094;28;20035;-39
2021/06/08 01:05:28;;;;;;;6.72;3.63;;;;;;;13.66;80.70;93495.78;5091536;28;20055;-40
2021/06/08 01:07:54;;;;;;;5.28;3.35;;;;;;;13.69;80.49;93491.88;5090397;28;20097;-41
2021/06/08 01:10:19;;;;;;;3.80;2.80;;;;;;;13.74;80.21;93495.72;5091860;28;20516;-42
2021/06/08 01:12:45;;;;;;;4.38;3.17;;;;;;;13.63;80.21;93491.38;5091501;28;20020;-39
2021/06/08 01:15:11;;;;;;;4.32;3.42;;;;;;;13.68;80.25;93495.22;5091453;28;20024;-41
2021/06/08 01:17:36;;;;;;;4.85;3.35;;;;;;;13.66;80.22;93493.00;5091462;28;20027;-38
2021/06/08 01:20:03;;;;;;;5.40;3.58;;;;;;;13.68;79.60;93490.41;5091732;28;20042;-38
2021/06/08 01:22:29;;;;;;;7.95;4.60;;;;;;;13.69;79.45;93488.34;5091332;28;20116;-38
2021/06/08 01:24:55;;;;;;;7.15;3.83;;;;;;;13.76;79.71;93482.00;5091349;28;20028;-39
2021/06/08 01:27:21;;;;;;;9.40;3.92;;;;;;;13.80;80.16;93487.88;5091222;28;20036;-39
2021/06/08 01:29:48;;;;;;;7.18;3.88;;;;;;;13.76;80.06;93487.56;5091544;28;20026;-40
2021/06/08 01:32:14;;;;;;;10.88;4.50;;;;;;;13.85;80.18;93480.63;5091195;28;20038;-39
2021/06/08 01:34:39;;;;;;;8.77;4.63;;;;;;;13.81;80.18;93486.59;5073035;28;20032;-40
2021/06/08 01:37:05;;;;;;;8.10;4.45;;;;;;;13.85;80.53;93484.16;5091070;28;20028;-39
2021/06/08 01:39:36;;;;;;;8.15;4.30;;;;;;;13.85;80.81;93489.69;5073042;28;20024;-38
2021/06/08 01:42:04;;;;;;;12.30;6.75;;;;;;;13.76;80.68;93479.22;5091113;28;20024;-39
2021/06/08 01:44:29;;;;;;;7.10;4.82;;;;;;;13.66;80.99;93472.88;5091272;28;20462;-40
2021/06/08 01:46:54;;;;;;;6.43;4.15;;;;;;;13.63;81.17;93476.75;5091261;28;20024;-39
2021/06/08 01:49:20;;;;;;;7.35;5.68;;;;;;;13.68;81.41;93475.81;5090782;28;20119;-39
2021/06/08 01:52:07;;;;;;;5.30;3.92;;;;;;;13.79;81.15;93480.13;5090898;28;20069;-38
2021/06/08 01:54:49;;;;;;;4.40;3.38;;;;;;;13.75;81.55;93471.50;5091071;28;20173;-39
2021/06/08 01:57:23;;;;;;;5.85;4.15;;;;;;;13.67;81.64;93477.09;5073123;28;20157;-40
2021/06/08 02:00:06;;;;;;;9.15;5.65;;;;;;;13.68;81.65;93478.56;5091024;28;20109;-39
2021/06/08 02:02:54;;;;;;;9.38;5.63;;;;;;;13.80;81.43;93473.28;5091040;28;20024;-39
2021/06/08 02:05:50;;;;;;;10.13;6.88;;;;;;;13.74;81.76;93470.75;5072914;28;20024;-38
2021/06/08 02:08:21;;;;;;;8.40;5.28;;;;;;;13.82;81.94;93468.63;5072730;28;20055;-41
2021/06/08 02:10:48;;;;;;;7.30;5.32;;;;;;;13.72;82.40;93476.13;5090630;28;20063;-39
2021/06/08 02:13:33;;;;;;;7.75;4.85;;;;;;;13.82;82.39;93476.25;5090773;28;20063;-38
2021/06/08 02:16:14;;;;;;;11.93;5.72;;;;;;;13.87;82.25;93472.47;5090832;28;20024;-38
2021/06/08 02:18:41;;;;;;;20.00;9.32;;;;;;;13.89;82.16;93483.75;5091832;28;20027;-39
2021/06/08 02:21:08;;;;;;;10.25;7.25;;;;;;;13.95;82.06;93484.97;5092704;28;20114;-39
2021/06/08 02:23:34;;;;;;;14.57;6.60;;;;;;;13.99;81.73;93490.13;5092911;28;20023;-39
2021/06/08 02:26:00;;;;;;;8.63;5.40;;;;;;;13.95;81.54;93484.97;5109576;28;20043;-42
2021/06/08 02:28:29;;;;;;;7.63;4.75;;;;;;;13.97;81.54;93487.19;5092800;28;20077;-39
2021/06/08 02:30:56;;;;;;;7.60;5.00;;;;;;;14.03;81.41;93487.69;5110653;28;20027;-39
2021/06/08 02:33:24;;;;;;;7.30;4.80;;;;;;;14.03;81.23;93482.88;5110934;28;20040;-39
2021/06/08 02:35:50;;;;;;;11.45;5.72;;;;;;;13.93;81.54;93481.28;5085719;28;20405;-39
2021/06/08 02:38:16;;;;;;;8.23;5.20;;;;;;;13.90;81.52;93482.44;5072205;28;20035;-41
2021/06/08 02:40:42;;;;;;;8.10;4.85;;;;;;;13.83;82.17;93484.00;5072582;28;20028;-40
2021/06/08 02:43:08;;;;;;;10.57;6.80;;;;;;;13.83;81.98;93486.75;5090513;28;20104;-40
2021/06/08 02:45:34;;;;;;;10.32;6.72;;;;;;;13.77;82.42;93491.81;5090592;28;20024;-39
2021/06/08 02:48:00;;;;;;;24.38;10.75;;;;;;;13.80;82.41;93496.22;5072052;28;20032;-39
2021/06/08 02:50:26;;;;;;;21.35;10.40;;;;;;;13.78;82.41;93493.28;5072483;28;20031;-43
2021/06/08 02:52:55;;;;;;;19.02;9.32;;;;;;;13.79;82.55;93496.78;5090487;28;20117;-40
2021/06/08 02:55:25;;;;;;;19.83;8.40;;;;;;;13.87;82.66;93503.00;5072800;28;20035;-39
2021/06/08 02:57:52;;;;;;;16.00;8.43;;;;;;;13.91;82.56;93503.34;5071906;28;20024;-39
2021/06/08 03:00:18;;;;;;;21.55;6.97;;;;;;;13.98;82.37;93508.81;5072348;28;20035;-39
2021/06/08 03:02:45;;;;;;;11.48;7.45;;;;;;;14.01;82.25;93510.44;5072356;28;20470;-44
2021/06/08 03:05:18;;;;;;;16.38;6.15;;;;;;;14.14;81.78;93501.09;5072028;28;20085;-41
2021/06/08 03:07:46;;;;;;;13.55;6.95;;;;;;;14.05;82.03;93504.50;5089693;28;20044;-38
2021/06/08 03:10:14;;;;;;;14.10;7.75;;;;;;;14.11;81.82;93507.78;5089913;28;20024;-38
2021/06/08 03:12:49;;;;;;;16.05;5.78;;;;;;;14.04;82.66;93497.47;5073044;28;20028;-38
2021/06/08 03:15:15;;;;;;;18.50;8.52;;;;;;;14.13;82.56;93502.38;5092429;28;20037;-38
2021/06/08 03:17:42;;;;;;;13.80;6.30;;;;;;;14.14;82.41;93495.53;5092097;28;20076;-38
2021/06/08 03:20:14;;;;;;;12.02;7.07;;;;;;;14.15;82.40;93503.28;5075155;28;20027;-38
2021/06/08 03:22:42;;;;;;;15.93;8.23;;;;;;;14.17;82.15;93494.38;5092366;28;20129;-39
2021/06/08 03:25:08;;;;;;;12.50;6.22;;;;;;;14.26;82.14;93502.06;5092089;28;20020;-38
2021/06/08 03:27:34;;;;;;;14.50;8.32;;;;;;;14.27;82.25;93506.31;5091982;28;20081;-41
2021/06/08 03:30:00;;;;;;;11.02;7.05;;;;;;;14.20;82.39;93499.53;5110484;28;20023;-39
2021/06/08 03:32:27;;;;;;;10.25;6.00;;;;;;;14.21;82.64;93505.81;5096104;28;20027;-40
2021/06/08 03:34:52;;;;;;;15.65;7.38;;;;;;;14.33;82.48;93501.28;5095459;28;20039;-40
2021/06/08 03:37:20;;;;;;;10.98;6.55;;;;;;;14.31;82.98;93501.84;5093547;28;20421;-40
2021/06/08 03:39:47;;;;;;;13.80;6.25;;;;;;;14.40;82.75;93506.72;5093449;28;20030;-39
2021/06/08 03:42:12;;;;;;;8.80;5.10;;;;;;;14.48;82.43;93519.81;5093218;28;20110;-39
2021/06/08 03:44:38;;;;;;;9.57;6.25;;;;;;;14.50;82.26;93504.03;5075561;28;20173;-39
2021/06/08 03:47:03;;;;;;;14.00;6.65;;;;;;;14.55;81.94;93505.84;5075108;28;20028;-39
2021/06/08 03:49:29;;;;;;;11.35;6.05;;;;;;;14.54;81.89;93501.59;5075472;28;20027;-41
2021/06/08 03:51:55;;;;;;;11.73;6.13;;;;;;;14.65;81.83;93509.41;5075140;28;20107;-40
2021/06/08 03:54:21;;;;;;;13.95;6.55;;;;;;;14.65;81.84;93505.91;5093424;28;20509;-39
2021/06/08 03:56:49;;;;;;;12.43;7.18;;;;;;;14.68;81.78;93502.00;5093103;28;20512;-39
2021/06/08 03:59:16;;;;;;;12.38;5.63;;;;;;;14.72;81.60;93511.38;5093363;28;20492;-38
2021/06/08 04:01:43;;;;;;;11.38;6.22;;;;;;;14.71;81.52;93496.00;5075223;28;20102;-37
2021/06/08 04:04:09;;;;;;;13.43;7.57;;;;;;;14.61;81.82;93492.44;5074926;28;20028;-37
2021/06/08 04:06:35;;;;;;;15.35;6.45;;;;;;;14.82;81.46;93505.88;5074931;28;20066;-38
2021/06/08 04:09:07;;;;;;;12.55;5.68;;;;;;;14.84;81.50;93509.56;5094588;28;20045;-38
2021/06/08 04:11:33;;;;;;;12.13;6.75;;;;;;;14.78;81.44;93497.22;5113388;28;20416;-38
2021/06/08 04:13:59;;;;;;;12.77;7.03;;;;;;;14.92;81.21;93520.59;5113080;28;20027;-39
2021/06/08 04:16:25;;;;;;;6.65;5.53;;;;;;;14.88;81.73;93515.44;5113439;28;20035;-38
2021/06/08 04:18:50;;;;;;;12.80;5.82;;;;;;;14.91;82.01;93519.84;5113304;28;20097;-38
2021/06/08 04:21:16;;;;;;;10.65;6.60;;;;;;;14.80;82.41;93520.34;5112929;28;20389;-38
2021/06/08 04:23:42;;;;;;;14.05;5.55;;;;;;;14.77;82.43;93504.81;5112958;28;20031;-38
2021/06/08 04:26:08;;;;;;;9.07;6.13;;;;;;;14.88;82.07;93514.69;5112854;28;20088;-38
2021/06/08 04:28:33;;;;;;;13.68;5.68;;;;;;;14.87;82.30;93519.53;5112789;28;20032;-38
2021/06/08 04:30:59;;;;;;;7.05;5.82;;;;;;;14.93;82.66;93513.69;5113085;28;20032;-38
2021/06/08 04:33:27;;;;;;;14.00;6.50;;;;;;;14.95;82.81;93519.41;5112772;28;20077;-38
2021/06/08 04:35:53;;;;;;;9.45;5.75;;;;;;;15.06;82.34;93519.66;5105077;28;20024;-40
2021/06/08 04:38:20;;;;;;;11.32;6.43;;;;;;;15.03;82.30;93523.56;5092275;28;20035;-41
2021/06/08 04:40:47;;;;;;;11.20;6.28;;;;;;;15.03;82.04;93518.00;5092517;28;20032;-44
2021/06/08 04:43:13;;;;;;;9.57;5.97;;;;;;;15.07;81.59;93514.81;5091894;28;20115;-44
2021/06/08 04:45:39;;;;;;;10.52;6.07;;;;;;;15.08;81.86;93530.19;5092374;28;20619;-43
2021/06/08 04:48:05;;;;;;;10.13;6.35;;;;;;;15.13;81.96;93529.19;5091991;28;20028;-41
2021/06/08 04:50:30;;;;;;;9.73;6.15;;;;;;;15.17;80.76;93527.47;5092284;28;20028;-39
2021/06/08 04:52:56;;;;;;;12.88;7.63;;;;;;;15.17;80.49;93532.28;5074174;28;20592;-40
2021/06/08 04:55:23;;;;;;;11.18;6.63;;;;;;;15.25;80.45;93540.53;5092193;28;20032;-40
2021/06/08 04:57:50;;;;;;;9.63;5.93;;;;;;;15.28;80.58;93542.16;5092187;28;20038;-42
2021/06/08 05:00:18;;;;;;;8.88;6.45;;;;;;;15.40;80.14;93540.34;5091559;28;20517;-39
2021/06/08 05:02:47;;;;;;;9.32;6.70;;;;;;;15.50;79.75;93539.09;5073772;28;20027;-39
2021/06/08 05:05:21;;;;;;;8.48;5.50;;;;;;;15.56;79.53;93530.47;5093011;28;20527;-43
2021/06/08 05:07:56;;;;;;;11.15;5.50;;;;;;;15.70;78.52;93537.84;5093845;28;20051;-40
2021/06/08 05:10:23;;;;;;;6.05;5.45;;;;;;;15.84;77.50;93540.97;5093956;28;20035;-40
2021/06/08 05:12:49;;;;;;;8.85;5.20;;;;;;;15.74;77.00;93535.34;5093860;28;20063;-40
2021/06/08 05:15:16;;;;;;;10.95;5.85;;;;;;;15.68;77.58;93528.63;5093739;28;20053;-43
2021/06/08 05:17:42;;;;;;;8.02;5.55;;;;;;;15.79;77.58;93539.19;5094082;28;20019;-42
2021/06/08 05:20:09;;;;;;;10.23;6.25;;;;;;;15.86;77.50;93544.66;5093653;28;20492;-41
2021/06/08 05:22:35;;;;;;;16.27;5.93;;;;;;;15.83;77.84;93542.31;5093750;28;20081;-40
2021/06/08 05:25:00;;;;;;;10.40;7.30;;;;;;;15.89;77.70;93540.72;5093538;28;20031;-40
2021/06/08 05:27:26;;;;;;;9.27;5.43;;;;;;;15.82;77.60;93530.44;5093422;28;20035;-44
2021/06/08 05:29:53;;;;;;;6.13;5.50;;;;;;;15.97;77.20;93540.56;5111576;28;20026;-40
2021/06/08 05:32:19;;;;;;;10.02;6.30;;;;;;;16.09;76.79;93551.91;5111441;28;20105;-42
2021/06/08 05:34:45;;;;;;;7.85;5.57;;;;;;;16.14;76.13;93543.25;5111356;28;20039;-40
2021/06/08 05:37:13;;;;;;;7.28;5.03;;;;;;;16.13;75.24;93547.38;5093040;28;20050;-43
2021/06/08 05:39:39;;;;;;;5.63;4.47;;;;;;;16.27;74.95;93553.97;5091320;28;20035;-41
2021/06/08 05:42:10;;;;;;;8.95;5.60;;;;;;;16.18;75.67;93563.06;5091194;28;20036;-39
2021/06/08 05:44:37;;;;;;;11.85;8.30;;;;;;;16.21;75.84;93547.97;5091138;28;20028;-40
2021/06/08 05:47:06;;;;;;;10.45;6.32;;;;;;;16.24;75.77;93552.34;5090998;28;20020;-38
2021/06/08 05:49:33;;;;;;;14.95;7.22;;;;;;;16.18;76.48;93540.03;5090961;28;20016;-39
2021/06/08 05:51:59;;;;;;;7.78;4.80;;;;;;;16.40;75.49;93558.41;5072331;28;20023;-39
2021/06/08 05:54:29;;;;;;;8.57;5.55;;;;;;;16.48;74.75;93554.16;5082762;28;20059;-39
2021/06/08 05:56:56;;;;;;;6.47;4.63;;;;;;;16.57;74.99;93550.69;5088867;28;20100;-38
2021/06/08 05:59:22;;;;;;;9.77;6.07;;;;;;;16.63;74.57;93542.75;5100351;28;20512;-40
2021/06/08 06:01:48;;;;;;;8.27;5.63;;;;;;;16.72;73.64;93546.16;5105274;28;20019;-39
2021/06/08 06:04:16;;;;;;;6.15;4.60;;;;;;;16.85;73.72;93554.78;5083611;28;20428;-39
2021/06/08 06:06:43;;;;;;;9.70;4.85;;;;;;;16.85;73.37;93554.78;5091579;28;20027;-39
2021/06/08 06:09:25;;;;;;;7.40;4.72;;;;;;;16.95;73.29;93549.97;5064680;28;20109;-39
2021/06/08 06:11:52;;;;;;;6.82;4.43;;;;;;;16.82;73.35;93549.66;5092320;28;20428;-43
2021/06/08 06:14:22;;;;;;;8.63;5.65;;;;;;;17.00;73.00;93551.00;5091880;28;20036;-43
2021/06/08 06:16:52;;;;;;;8.35;4.47;;;;;;;17.08;72.75;93551.56;5109927;28;20023;-42
2021/06/08 06:19:18;;;;;;;6.53;4.72;;;;;;;17.25;72.13;93552.13;5092564;28;20048;-43
2021/06/08 06:21:44;;;;;;;7.70;4.95;;;;;;;17.23;71.83;93551.25;5091858;28;20024;-43
2021/06/08 06:24:11;;;;;;;8.82;5.80;;;;;;;17.40;71.81;93551.06;5092039;28;20554;-40
2021/06/08 06:26:37;;;;;;;9.35;5.88;;;;;;;17.47;71.72;93536.22;5109826;28;20065;-45
2021/06/08 06:29:05;;;;;;;7.85;5.40;;;;;;;17.75;71.02;93552.16;5109883;28;20447;-42
2021/06/08 06:31:31;;;;;;;8.00;5.38;;;;;;;17.69;70.24;93551.75;5109494;28;20047;-43
2021/06/08 06:33:58;;;;;;;16.98;6.90;;;;;;;17.79;70.11;93555.22;5091499;28;20408;-41
2021/06/08 06:36:28;;;;;;;10.80;6.30;;;;;;;17.77;70.23;93552.28;5097905;28;20031;-43
2021/06/08 06:39:02;;;;;;;10.32;4.88;;;;;;;17.76;69.41;93552.91;5089424;28;20456;-43
2021/06/08 06:41:28;;;;;;;8.48;5.22;;;;;;;17.75;69.51;93545.84;5089073;28;20032;-45
2021/06/08 06:43:55;;;;;;;8.55;5.40;;;;;;;17.81;69.66;93549.78;5089211;28;20035;-45
2021/06/08 06:46:22;;;;;;;8.43;4.90;;;;;;;17.82;69.60;93542.84;5089563;28;20035;-45
2021/06/08 06:48:51;;;;;;;7.68;4.97;;;;;;;17.87;70.12;93536.22;5071674;28;20489;-41
2021/06/08 06:51:17;;;;;;;8.80;5.25;;;;;;;18.03;70.08;93545.72;5089497;28;20070;-41
2021/06/08 06:53:42;;;;;;;6.97;4.85;;;;;;;18.29;69.49;93532.78;5070622;28;20115;-38
2021/06/08 06:56:08;;;;;;;25.65;8.68;;;;;;;18.40;68.19;93534.19;5071078;28;20030;-41
2021/06/08 06:58:33;;;;;;;14.70;6.35;;;;;;;18.77;68.72;93524.09;5089982;28;20024;-40
2021/06/08 07:01:01;;;;;;;9.80;5.75;;;;;;;19.16;66.60;93527.28;5070918;28;20489;-41
2021/06/08 07:03:31;;;;;;;10.50;6.28;;;;;;;19.31;65.72;93527.56;5071140;28;20103;-42
2021/06/08 07:05:57;;;;;;;7.47;4.78;;;;;;;19.62;64.59;93519.03;5092682;28;20038;-39
2021/06/08 07:08:24;;;;;;;6.68;4.57;;;;;;;19.92;63.64;93523.69;5092781;28;20435;-41
2021/06/08 07:10:51;;;;;;;11.30;5.72;;;;;;;20.25;63.64;93515.13;5107380;28;20040;-38
2021/06/08 07:13:17;;;;;;;5.90;4.82;;;;;;;20.47;62.63;93516.44;5112710;28;20028;-39
2021/06/08 07:15:44;;;;;;;6.63;5.18;;;;;;;20.74;61.62;93502.63;5095325;28;20028;-40
2021/06/08 07:18:10;;;;;;;8.35;5.03;;;;;;;21.03;60.03;93514.13;5113605;28;20024;-39
2021/06/08 07:20:37;;;;;;;8.77;5.70;;;;;;;21.09;59.45;93508.13;5113032;28;20034;-42
2021/06/08 07:23:03;;;;;;;8.23;4.97;;;;;;;20.87;59.70;93516.00;5113018;28;20020;-43
2021/06/08 07:25:34;;;;;;;6.50;4.32;;;;;;;20.48;60.29;93514.38;5095188;28;20160;-39
2021/06/08 07:27:59;;;;;;;7.55;5.53;;;;;;;20.04;61.95;93510.38;5095309;28;20043;-41
2021/06/08 07:30:25;;;;;;;10.68;6.10;;;;;;;20.56;61.56;93517.66;5088166;28;20020;-39
2021/06/08 07:32:53;;;;;;;6.80;4.22;;;;;;;21.66;58.06;93520.38;5093076;28;20024;-41
2021/06/08 07:35:21;;;;;;;7.82;5.53;;;;;;;22.61;54.13;93517.69;5092435;28;20409;-41
2021/06/08 07:37:49;;;;;;;5.97;4.07;;;;;;;23.42;52.78;93519.63;5095737;28;20028;-42
2021/06/08 07:40:42;;;;;;;7.43;5.13;;;;;;;24.28;50.78;93510.91;5083154;28;20080;-40
2021/06/08 07:43:09;;;;;;;5.63;4.20;;;;;;;24.82;47.78;93514.00;5078574;28;20425;-42
2021/06/08 07:45:44;;;;;;;5.00;4.25;;;;;;;25.97;44.13;93510.16;5101124;28;20032;-41
2021/06/08 07:48:15;;;;;;;6.05;3.88;;;;;;;26.71;43.56;93503.69;5086739;28;20019;-43
2021/06/08 07:50:43;;;;;;;7.43;4.38;;;;;;;27.95;40.95;93517.75;5088217;28;20442;-42
2021/06/08 07:53:09;;;;;;;5.05;4.55;;;;;;;28.90;38.77;93514.84;5092295;28;20032;-42
2021/06/08 07:55:35;;;;;;;7.03;3.58;;;;;;;29.20;37.99;93515.66;5087522;28;20440;-44
2021/06/08 07:58:02;;;;;;;4.10;3.63;;;;;;;29.15;37.28;93514.09;5078644;28;20106;-42
2021/06/08 08:00:28;;;;;;;5.22;3.78;;;;;;;28.96;38.03;93515.00;5103646;28;20500;-42
2021/06/08 08:02:54;;;;;;;5.05;3.83;;;;;;;29.58;37.61;93513.06;5112623;28;20019;-45
2021/06/08 08:05:22;;;;;;;5.18;3.78;;;;;;;30.05;35.91;93515.63;5094303;28;20466;-42
2021/06/08 08:07:48;;;;;;;6.70;4.05;;;;;;;30.79;34.35;93510.78;5111923;28;20130;-41
2021/06/08 08:10:14;;;;;;;4.80;3.42;;;;;;;31.39;33.30;93514.78;5112382;28;20503;-44
2021/06/08 08:12:42;;;;;;;4.32;2.97;;;;;;;31.25;33.11;93517.38;5094208;28;20055;-42
2021/06/08 08:15:10;;;;;;;3.80;3.20;;;;;;;31.92;31.55;93513.53;5111771;28;20509;-45
2021/06/08 08:17:37;;;;;;;3.90;2.92;;;;;;;32.11;31.05;93517.41;5104921;28;20095;-43
2021/06/08 08:20:07;;;;;;;3.67;3.15;;;;;;;31.40;32.21;93507.69;5087483;28;20028;-42
2021/06/08 08:22:33;;;;;;;3.97;2.97;;;;;;;32.53;31.21;93515.16;5099760;28;20073;-44
2021/06/08 08:24:59;;;;;;;3.00;2.70;;;;;;;33.36;29.62;93516.13;5101974;28;20023;-41
2021/06/08 08:27:25;;;;;;;6.35;2.83;;;;;;;32.38;29.60;93507.09;5101027;28;20030;-43
2021/06/08 08:29:51;;;;;;;4.22;3.10;;;;;;;30.91;32.80;93513.91;5101020;28;20024;-42
2021/06/08 08:32:18;;;;;;;4.93;3.03;;;;;;;29.69;35.65;93518.31;5098597;28;20028;-42
2021/06/08 08:34:44;;;;;;;4.22;3.40;;;;;;;28.72;37.40;93517.91;5080673;28;20032;-45
2021/06/08 08:37:09;;;;;;;3.03;2.47;;;;;;;28.20;37.71;93508.59;5094854;28;20036;-43
2021/06/08 08:39:35;;;;;;;3.75;3.03;;;;;;;27.43;40.10;93511.16;5094097;28;20024;-42
2021/06/08 08:42:00;;;;;;;3.08;2.50;;;;;;;26.60;42.18;93516.03;5089305;28;20050;-42
2021/06/08 08:44:26;;;;;;;3.10;2.63;;;;;;;26.26;43.77;93507.03;5071675;28;20055;-44
2021/06/08 08:46:52;;;;;;;3.13;2.83;;;;;;;25.49;44.04;93486.38;5090532;28;20417;-43
2021/06/08 08:49:18;;;;;;;5.60;3.70;;;;;;;25.21;44.86;93504.31;5090472;28;20467;-44
2021/06/08 08:51:43;;;;;;;3.53;2.65;;;;;;;24.56;47.01;93495.22;5090147;28;20096;-46
2021/06/08 08:54:11;;;;;;;5.20;3.65;;;;;;;24.26;47.62;93499.50;5090277;28;20514;-43
2021/06/08 08:56:38;;;;;;;3.75;3.03;;;;;;;24.10;48.78;93493.91;5090639;28;20028;-42
2021/06/08 08:59:15;;;;;;;4.25;3.22;;;;;;;24.21;48.02;93490.16;5090563;28;20024;-43
2021/06/08 09:01:43;;;;;;;3.70;2.90;;;;;;;24.27;49.19;93478.41;5091111;28;20051;-43
2021/06/08 09:04:09;;;;;;;4.33;2.83;;;;;;;25.11;48.76;93478.44;5090552;28;20036;-42
2021/06/08 09:06:36;;;;;;;3.47;2.72;;;;;;;26.59;42.71;93474.97;5090388;28;20024;-42
2021/06/08 09:09:03;;;;;;;2.60;2.20;;;;;;;28.36;37.71;93477.81;5090782;28;20031;-43
2021/06/08 09:11:36;;;;;;;2.70;2.38;;;;;;;29.96;35.23;93477.69;5090622;28;20151;-43
2021/06/08 09:14:03;;;;;;;2.03;1.80;;;;;;;31.09;32.35;93479.28;5090103;28;20103;-46
2021/06/08 09:16:29;;;;;;;2.25;2.05;;;;;;;32.13;30.71;93481.03;5090352;28;20107;-45
2021/06/08 09:18:55;;;;;;;2.03;1.83;;;;;;;32.72;28.92;93476.81;5090095;28;20020;-46
2021/06/08 09:21:23;;;;;;;1.42;1.33;;;;;;;34.00;28.53;93475.91;5071845;28;20119;-43
2021/06/08 09:23:49;;;;;;;1.85;1.70;;;;;;;34.52;26.89;93466.94;5097257;28;20081;-46
2021/06/08 09:26:17;;;;;;;2.00;1.80;;;;;;;34.79;24.23;93471.31;5088072;28;20039;-43
2021/06/08 09:28:44;;;;;;;1.52;1.42;;;;;;;35.37;24.92;93457.13;5088079;28;20082;-48
2021/06/08 09:31:21;;;;;;;1.77;1.67;;;;;;;35.75;25.20;93454.31;5098263;28;20046;-46
2021/06/08 09:33:54;;;;;;;2.25;1.85;;;;;;;36.62;24.21;93457.06;5105205;28;20512;-44
2021/06/08 09:36:21;;;;;;;2.72;1.90;;;;;;;37.13;21.50;93455.41;5096424;28;20092;-44
2021/06/08 09:38:58;;;;;;;1.73;1.63;;;;;;;37.60;20.88;93460.91;5089018;28;20085;-45
2021/06/08 09:41:33;;;;;;;2.72;2.08;;;;;;;36.83;21.72;93452.66;5088859;28;20088;-42
2021/06/08 09:44:04;;;;;;;1.88;1.65;;;;;;;36.69;22.14;93454.88;5089209;28;20032;-44
2021/06/08 09:46:47;;;;;;;1.90;1.80;;;;;;;36.80;22.51;93451.22;5088842;28;20110;-43
2021/06/08 09:49:18;;;;;;;1.60;1.50;;;;;;;36.08;22.86;93442.81;5088809;28;20083;-43
2021/06/08 09:52:00;;;;;;;1.38;1.27;;;;;;;35.67;22.29;93445.69;5090379;28;20038;-46
2021/06/08 09:54:40;;;;;;;5.32;1.70;;;;;;;34.79;22.63;93446.22;5083265;28;20031;-44
2021/06/08 09:57:19;;;;;;;3.20;2.17;;;;;;;34.38;23.30;93449.63;5100049;28;20046;-43
2021/06/08 09:59:58;;;;;;;2.33;1.48;;;;;;;34.15;22.71;93445.94;5088842;28;20036;-41
2021/06/08 10:02:45;;;;;;;1.80;1.70;;;;;;;33.49;24.52;93443.97;5088590;28;20064;-44
2021/06/08 10:05:27;;;;;;;1.95;1.70;;;;;;;33.23;26.20;93443.03;5088030;28;20032;-43
2021/06/08 10:08:12;;;;;;;4.68;1.90;;;;;;;33.75;26.07;93451.34;5087991;28;20055;-44
2021/06/08 10:10:46;;;;;;;1.60;1.50;;;;;;;33.00;22.92;93449.97;5087542;28;20047;-42
2021/06/08 10:13:19;;;;;;;1.92;1.73;;;;;;;31.39;24.91;93443.47;5092822;28;20047;-40
2021/06/08 10:15:59;;;;;;;1.88;1.77;;;;;;;31.63;25.11;93436.69;5088496;28;20051;-40
2021/06/08 10:18:26;;;;;;;2.40;1.48;;;;;;;32.08;26.50;93438.81;5088478;28;20044;-42
2021/06/08 10:20:53;;;;;;;1.30;1.20;;;;;;;32.38;25.07;93439.19;5088566;28;20039;-41
2021/06/08 10:23:21;;;;;;;2.45;1.92;;;;;;;32.71;25.44;93426.75;5088540;28;20055;-43
2021/06/08 10:25:51;;;;;;;3.35;1.80;;;;;;;32.52;25.42;93427.97;5088155;28;20036;-41
2021/06/08 10:28:17;;;;;;;7.22;4.53;;;;;;;31.05;28.27;93428.63;5100354;28;20515;-40
2021/06/08 10:30:44;;;;;;;2.75;2.25;;;;;;;29.64;29.36;93431.41;5084578;28;20812;-40
2021/06/08 10:33:10;;;;;;;2.80;1.95;;;;;;;28.75;29.92;93439.84;5084597;28;20035;-40
2021/06/08 10:35:36;;;;;;;3.45;2.60;;;;;;;28.12;35.08;93442.31;5088888;28;20020;-42
2021/06/08 10:38:04;;;;;;;5.85;3.05;;;;;;;27.41;35.72;93445.13;5104602;28;20019;-41
2021/06/08 10:40:30;;;;;;;4.28;3.15;;;;;;;27.01;38.63;93439.59;5091492;28;20086;-41
2021/06/08 10:42:56;;;;;;;5.30;2.47;;;;;;;26.32;38.84;93435.75;5084880;28;20758;-39
2021/06/08 10:45:22;;;;;;;2.60;2.40;;;;;;;26.19;41.21;93431.06;5085724;28;20028;-40
2021/06/08 10:48:02;;;;;;;3.10;2.05;;;;;;;25.83;43.96;93421.94;5087709;28;20123;-38
2021/06/08 10:50:31;;;;;;;6.35;2.90;;;;;;;25.04;48.35;93431.53;5074558;28;20080;-38
2021/06/08 10:52:58;;;;;;;2.42;2.20;;;;;;;24.27;48.96;93424.78;5107210;28;20034;-38
2021/06/08 10:55:33;;;;;;;3.30;2.55;;;;;;;23.89;49.97;93421.00;5107237;28;20070;-38
2021/06/08 10:57:59;;;;;;;4.43;3.03;;;;;;;23.32;51.85;93424.03;5100350;28;20016;-39
2021/06/08 11:00:24;;;;;;;11.48;4.07;;;;;;;22.77;52.99;93425.63;5103268;28;20092;-39
2021/06/08 11:02:52;;;;;;;3.45;2.67;;;;;;;22.49;52.56;93421.41;5106589;28;20043;-39
2021/06/08 11:05:19;;;;;;;2.85;2.63;;;;;;;22.53;50.53;93415.97;5106694;28;20033;-38
2021/06/08 11:07:49;;;;;;;2.85;2.30;;;;;;;22.66;53.72;93418.03;5105344;28;20075;-39
2021/06/08 11:10:26;;;;;;;2.50;2.30;;;;;;;22.85;53.39;93419.69;5106464;28;20031;-38
2021/06/08 11:13:07;;;;;;;3.05;2.47;;;;;;;23.49;52.86;93425.56;5107060;28;20639;-38
2021/06/08 11:15:32;;;;;;;3.08;2.65;;;;;;;23.94;50.89;93426.19;5106363;28;20092;-39
2021/06/08 11:17:58;;;;;;;4.90;2.88;;;;;;;24.17;49.40;93418.72;5106577;28;20020;-39
2021/06/08 11:20:26;;;;;;;2.78;2.28;;;;;;;24.66;49.50;93410.94;5106422;28;20130;-40
2021/06/08 11:22:54;;;;;;;2.40;2.20;;;;;;;24.92;46.35;93406.38;5106428;28;20039;-40
2021/06/08 11:25:33;;;;;;;5.00;3.15;;;;;;;24.36;47.07;93401.94;5106359;28;20572;-41
2021/06/08 11:28:14;;;;;;;4.50;3.63;;;;;;;24.13;48.37;93410.09;5106085;28;20061;-38
2021/06/08 11:31:00;;;;;;;2.90;2.47;;;;;;;23.62;46.62;93396.56;5106294;28;20028;-38
2021/06/08 11:33:27;;;;;;;4.18;2.58;;;;;;;23.59;46.50;93411.16;5106280;28;20023;-38
2021/06/08 11:35:53;;;;;;;4.05;2.85;;;;;;;23.28;48.32;93411.88;5106228;28;20081;-40
2021/06/08 11:38:24;;;;;;;4.40;2.60;;;;;;;23.07;49.20;93412.25;5105594;28;20825;-39